Relevés horaires Bierset (Belgique)


Relevés horaires à Bierset - Mardi 23 Avr. 2019
Heure UTC1 Température [°C] Vent [km/h] Hum. [%] Pres.4 [hPa] Visi. [Km] Nébu. [octa] Préc.5 [mm] Cond.
2m. Res. Ros. Dir.2 Vit. Moy. Raf.3
23:00 16.2 16.2 7.7 SSE 5.6 7.4 11.1 57 997.1(0.3/3h) 35 5/8 -- --
22:00 16.6 16.6 7.7 SSE 5.6 7.4 14.8 56 997(0.6/3h) 35 7/8 -- --
21:00 17.1 17.1 7.4 S 5.6 7.4 13.0 53 996.8(0.7/3h) 35 7/8 -- --
20:00 17.7 17.7 7.4 SSE 5.6 5.6 13.0 51 996.7(0.6/3h) 35 7/8 -- --
19:00 18.3 18.3 7.1 SSE 5.6 5.6 9.3 48 996.3(0.5/3h) 35 7/8 -- --
18:00 18.8 18.8 6.9 SSE 5.6 11.1 16.7 46 996(0.1/3h) 30 7/8 0/12h
--
17:00 19.3 19.3 6.6 S 7.4 11.1 14.8 44 996(-0.1/3h) 30 7/8 -- --
16:00 20.4 20.4 5.7 SSE 9.3 9.3 14.8 38 995.7(-0.8/3h) 30 6/8 -- --
15:00 20.7 20.7 8.3 ENE 7.4 11.1 16.7 45 995.7(-1.0/3h) 30 6/8 -- --
14:00 20.1 20.1 8.2 ENE 9.3 11.1 16.7 46 996(-1.1/3h) 30 6/8 -- --
13:00 19.2 19.2 7.2 E 7.4 9.3 16.7 46 996.5(-1.2/3h) 30 6/8 -- --
12:00 18.8 18.8 6.4 ENE 9.3 11.1 18.5 44 996.9(-1.1/3h) 30 6/8 0/6h
--
11:00 17.9 17.9 6.5 ENE 7.4 7.4 14.8 47 997.3(-1.0/3h) 30 7/8 -- --
10:00 16.1 16.1 5.6 ENE 5.6 7.4 13.0 50 998(-0.5/3h) 30 7/8 -- --
09:00 15.3 15.3 5.1 E 3.7 5.6 18.5 51 998.3(-0.6/3h) 30 7/8 -- --
08:00 13.5 13.5 4.1 E 5.6 5.6 18.5 53 998.6(-0.9/3h) 30 8/8 -- --
07:00 11.7 11.5 4.2 NE 5.6 5.6 7.4 60 998.8(-1.2/3h) 30 8/8 -- --
06:00 10.6 10.3 4.1 NE 5.6 7.4 14.8 64 999.2(-1.3/3h) 30 7/8 0/12h
--
05:00 10.8 10.8 2.6 ENE 3.7 3.7 9.3 57 999.7(-1.4/3h) 40 5/8 -- --
04:00 11.7 11.7 2.2 E 3.7 7.4 13.0 52 1000(-1.6/3h) 40 5/8 -- --
03:00 12.0 11.5 2.3 ENE 7.4 7.4 14.8 51 1000.5(-1.5/3h) 40 5/8 -- --
02:00 12.3 11.8 2.7 ENE 7.4 7.4 9.3 52 1001(-1.4/3h) 40 5/8 -- --
01:00 13.7 13.7 2.5 E 5.6 7.4 9.3 47 1001.5(-1.5/3h) 40 3/8 -- --
00:00 14.9 14.9 2.8 E 7.4 9.3 14.8 44 1001.8(-1.5/3h) 40 3/8 0/6h
0/24h
--

1 Coordinated Universal Time. Actuellement il est 07:00 locale et 05:00 UTC.

2 Le vent souffle depuis la direction indiquée vers la direction oposée.

3 Les rafales max. sont disponible 40 min après l'heure du relevé.

4 Pour les stations d'altitude (plus de 600m) le géopotentiel du niveau le plus proche de la pression obligatoire est indiqué.

5 Les stations disposant d'un diffuseur peuvent indiquer "trace". Cela signifie que des précipitations ont touchés le sol mais que la quantité est inférieure à 0.1 mm.

Récapitulatif de la journée
Température [°C] Vent [km/h] Ensoleillement4 [h] Precipitations totale5 [mm] Pression [Hpa]
Min1 Max.2 Moy.3 Max. Min Max.
9.7 21.2 7.9 18.5 0 h 0 min 0 995.7 1001.8

1 Température minimale relevée entre 18:00 UTC la veille et 18:00 UTC le jour donné.

2 Température maximale relevée entre 06:00 UTC le jour donné et 06:00 UTC le lendemain.

3 Vent moyen de la journée basé sur les relevés horaires.

4 Ensoleillement en heures relevé entre 06:00 UTC la veille et 06:00 UTC le jour donné.

5 Précipitations totales tombées entre 06:00 UTC la jour donné et 06:00 UTC le lendemain.

Graphiques horaires